Time;durP1;ratioP1;P1;durP2;ratioP2;P2;SDS_P1;SDS_P2;PMS_P1;PMS_P2;Temp;Humidity;BMP_temperature;BMP_pressure;BME280_temperature;BME280_humidity;BME280_pressure;Samples;Min_cycle;Max_cycle;Signal;HPM_P1;HPM_P2
2023/01/28 00:01:01;;;;;;;21.6;10;;;;;;;-0.7;78.4;99170;;;;
2023/01/28 00:12:01;;;;;;;19.2;11;;;;;;;-0.7;78.4;99170;;;;
2023/01/28 00:23:01;;;;;;;19.2;11;;;;;;;-0.7;78.7;99160;;;;
2023/01/28 00:34:01;;;;;;;18.1;10.4;;;;;;;-0.6;78.8;99170;;;;
2023/01/28 00:44:01;;;;;;;18.1;10.4;;;;;;;-0.6;79;99180;;;;
2023/01/28 00:55:00;;;;;;;18.1;10.4;;;;;;;-0.6;79.2;99180;;;;
2023/01/28 01:05:01;;;;;;;17.5;9.3;;;;;;;-0.5;79.2;99180;;;;
2023/01/28 01:15:01;;;;;;;17.5;9.3;;;;;;;-0.5;79;99180;;;;
2023/01/28 01:25:01;;;;;;;17.5;9.3;;;;;;;-0.4;79;99190;;;;
2023/01/28 01:36:01;;;;;;;18.6;10;;;;;;;-0.5;79.4;99190;;;;
2023/01/28 01:46:01;;;;;;;18.6;10;;;;;;;-0.5;79.7;99190;;;;
2023/01/28 01:57:01;;;;;;;18.6;10;;;;;;;-0.6;79.6;99200;;;;
2023/01/28 02:07:01;;;;;;;17.3;9.7;;;;;;;-0.6;80;99200;;;;
2023/01/28 02:18:01;;;;;;;17.3;9.7;;;;;;;-0.5;80.1;99200;;;;
2023/01/28 02:28:01;;;;;;;17.3;9.7;;;;;;;-0.4;79.8;99210;;;;
2023/01/28 02:39:01;;;;;;;21.9;10.1;;;;;;;-0.7;80.2;99200;;;;
2023/01/28 02:50:01;;;;;;;21.9;10.1;;;;;;;-0.6;80.2;99210;;;;
2023/01/28 03:00:01;;;;;;;21.9;10.1;;;;;;;-0.5;80;99210;;;;
2023/01/28 03:43:01;;;;;;;18.8;10.7;;;;;;;-0.8;80.2;99210;;;;
2023/01/28 03:54:01;;;;;;;18.8;10.7;;;;;;;-0.7;80.2;99210;;;;
2023/01/28 04:04:01;;;;;;;20.9;12;;;;;;;-0.7;80;99220;;;;
2023/01/28 04:14:01;;;;;;;20.9;12;;;;;;;-0.7;79.9;99220;;;;
2023/01/28 04:25:01;;;;;;;20.9;12;;;;;;;-0.8;79.9;99230;;;;
2023/01/28 04:35:01;;;;;;;21.1;10.8;;;;;;;-0.7;79.8;99230;;;;
2023/01/28 04:45:01;;;;;;;21.1;10.8;;;;;;;-0.7;79.8;99230;;;;
2023/01/28 04:56:01;;;;;;;21.1;10.8;;;;;;;-0.7;79.7;99240;;;;
2023/01/28 05:07:01;;;;;;;19;10.4;;;;;;;-0.7;79.7;99240;;;;
2023/01/28 05:17:01;;;;;;;19;10.4;;;;;;;-0.8;79.7;99240;;;;
2023/01/28 05:27:01;;;;;;;19;10.4;;;;;;;-0.7;79.8;99260;;;;
2023/01/28 05:37:01;;;;;;;18.5;10;;;;;;;-0.8;79.6;99260;;;;
2023/01/28 05:47:01;;;;;;;18.5;10;;;;;;;-0.8;79.6;99260;;;;
2023/01/28 05:57:01;;;;;;;18.5;10;;;;;;;-0.7;79.7;99270;;;;
2023/01/28 06:08:01;;;;;;;18.9;9;;;;;;;-0.7;79.4;99280;;;;
2023/01/28 06:19:01;;;;;;;18.9;9;;;;;;;-0.8;79.2;99300;;;;
2023/01/28 06:30:01;;;;;;;18.9;9;;;;;;;-0.7;79.2;99310;;;;
2023/01/28 06:41:01;;;;;;;14.3;8.9;;;;;;;-0.7;79;99330;;;;
2023/01/28 06:52:01;;;;;;;14.3;8.9;;;;;;;-0.7;79;99330;;;;
2023/01/28 07:02:01;;;;;;;14;9.1;;;;;;;-0.6;79.2;99350;;;;
2023/01/28 07:13:01;;;;;;;14;9.1;;;;;;;-0.6;79.1;99360;;;;
2023/01/28 07:23:01;;;;;;;14;9.1;;;;;;;-0.6;78.8;99360;;;;
2023/01/28 07:33:01;;;;;;;15.6;8.4;;;;;;;-0.4;78.9;99370;;;;
2023/01/28 07:44:01;;;;;;;15.6;8.4;;;;;;;-0.4;78.7;99380;;;;
2023/01/28 07:54:01;;;;;;;15.6;8.4;;;;;;;-0.2;78.1;99370;;;;
2023/01/28 08:04:01;;;;;;;16.9;9.2;;;;;;;-0.2;77.1;99380;;;;
2023/01/28 08:14:01;;;;;;;16.9;9.2;;;;;;;-0.2;76.4;99370;;;;
2023/01/28 08:25:01;;;;;;;16.9;9.2;;;;;;;-0.2;76.4;99390;;;;
2023/01/28 08:36:01;;;;;;;13.1;6.7;;;;;;;-0.2;76.1;99390;;;;
2023/01/28 08:46:01;;;;;;;13.1;6.7;;;;;;;-0.2;76.8;99390;;;;
2023/01/28 08:57:01;;;;;;;13.1;6.7;;;;;;;-0.2;76.9;99400;;;;
2023/01/28 09:08:01;;;;;;;13.8;7.8;;;;;;;-0.1;75.6;99420;;;;
2023/01/28 09:19:01;;;;;;;13.8;7.8;;;;;;;-0.2;75.3;99410;;;;
2023/01/28 09:29:01;;;;;;;13.8;7.8;;;;;;;-0.2;75.2;99420;;;;
2023/01/28 09:40:01;;;;;;;12.7;7.3;;;;;;;0;74.9;99410;;;;
2023/01/28 09:51:01;;;;;;;12.7;7.3;;;;;;;0;74.5;99410;;;;
2023/01/28 10:01:01;;;;;;;12.7;7.3;;;;;;;0.3;74.3;99410;;;;
2023/01/28 10:12:01;;;;;;;14.6;7.5;;;;;;;0.3;74.1;99410;;;;
2023/01/28 10:23:01;;;;;;;14.6;7.5;;;;;;;0.4;74.2;99410;;;;
2023/01/28 10:33:01;;;;;;;11.9;7.4;;;;;;;0.4;74.2;99410;;;;
2023/01/28 10:43:01;;;;;;;11.9;7.4;;;;;;;0.5;73.6;99400;;;;
2023/01/28 10:53:01;;;;;;;11.9;7.4;;;;;;;0.5;73.2;99400;;;;
2023/01/28 11:04:01;;;;;;;14.6;6;;;;;;;0.7;72.5;99390;;;;
2023/01/28 11:14:01;;;;;;;14.6;6;;;;;;;0.7;72.4;99400;;;;
2023/01/28 11:24:01;;;;;;;14.6;6;;;;;;;0.6;72.4;99390;;;;
2023/01/28 11:35:01;;;;;;;13.1;6.7;;;;;;;0.6;72.4;99390;;;;
2023/01/28 11:45:01;;;;;;;13.1;6.7;;;;;;;0.5;72.4;99380;;;;
2023/01/28 11:56:01;;;;;;;13.1;6.7;;;;;;;0.6;72.3;99380;;;;
2023/01/28 12:07:01;;;;;;;12.3;6.5;;;;;;;0.6;72.8;99380;;;;
2023/01/28 12:17:01;;;;;;;12.3;6.5;;;;;;;0.6;72.9;99380;;;;
2023/01/28 12:27:01;;;;;;;12.3;6.5;;;;;;;0.6;72.6;99380;;;;
2023/01/28 12:38:01;;;;;;;13.1;7.1;;;;;;;0.5;72.6;99390;;;;
2023/01/28 12:49:01;;;;;;;13.1;7.1;;;;;;;0.3;73.6;99380;;;;
2023/01/28 13:00:01;;;;;;;13.1;7.1;;;;;;;0.5;73.6;99390;;;;
2023/01/28 13:10:03;;;;;;;16.2;8.6;;;;;;;0.5;73.4;99390;;;;
2023/01/28 13:21:01;;;;;;;16.2;8.6;;;;;;;0.5;73.3;99400;;;;
2023/01/28 13:32:01;;;;;;;16.9;8.6;;;;;;;0.6;73.4;99410;;;;
2023/01/28 13:43:01;;;;;;;16.9;8.6;;;;;;;0.7;72.9;99410;;;;
2023/01/28 13:53:01;;;;;;;16.9;8.6;;;;;;;0.7;73.2;99420;;;;
2023/01/28 14:03:01;;;;;;;13.5;8;;;;;;;0.7;72.8;99420;;;;
2023/01/28 14:13:01;;;;;;;13.5;8;;;;;;;0.7;72.4;99430;;;;
2023/01/28 14:24:01;;;;;;;13.5;8;;;;;;;0.6;72.7;99430;;;;
2023/01/28 14:35:01;;;;;;;21.2;11.9;;;;;;;0.6;72.8;99440;;;;
2023/01/28 14:45:01;;;;;;;21.2;11.9;;;;;;;0.6;72.9;99440;;;;
2023/01/28 14:56:01;;;;;;;21.2;11.9;;;;;;;0.6;73.2;99440;;;;
2023/01/28 15:07:01;;;;;;;30.6;15.7;;;;;;;0.5;72.8;99460;;;;
2023/01/28 15:18:01;;;;;;;30.6;15.7;;;;;;;0.5;73;99460;;;;
2023/01/28 15:29:01;;;;;;;30.6;15.7;;;;;;;0.4;73.3;99480;;;;
2023/01/28 15:40:01;;;;;;;13.6;7.1;;;;;;;0.4;73.5;99490;;;;
2023/01/28 15:51:01;;;;;;;13.6;7.1;;;;;;;0.4;73.5;99490;;;;
2023/01/28 16:02:03;;;;;;;15.7;7.8;;;;;;;0.4;74.3;99500;;;;
2023/01/28 16:12:01;;;;;;;15.7;7.8;;;;;;;0.4;74.3;99500;;;;
2023/01/28 16:22:01;;;;;;;15.7;7.8;;;;;;;0.4;75;99500;;;;
2023/01/28 16:33:01;;;;;;;20.8;10.2;;;;;;;0.4;75.2;99510;;;;
2023/01/28 16:44:04;;;;;;;20.8;10.2;;;;;;;0.4;75.8;99510;;;;
2023/01/28 16:55:02;;;;;;;20.8;10.2;;;;;;;0.4;76.6;99520;;;;
2023/01/28 17:05:01;;;;;;;23.6;11.4;;;;;;;0.4;77.2;99530;;;;
2023/01/28 17:15:02;;;;;;;23.6;11.4;;;;;;;0.4;77.4;99530;;;;
2023/01/28 17:26:01;;;;;;;23.6;11.4;;;;;;;0.4;77;99530;;;;
2023/01/28 17:37:01;;;;;;;24.6;13.7;;;;;;;0.4;76.9;99530;;;;
2023/01/28 17:47:01;;;;;;;24.6;13.7;;;;;;;0.4;77.1;99540;;;;
2023/01/28 17:58:01;;;;;;;24.6;13.7;;;;;;;0.2;77.6;99540;;;;
2023/01/28 18:09:01;;;;;;;30.2;16.8;;;;;;;0.1;78.6;99550;;;;
2023/01/28 18:19:01;;;;;;;30.2;16.8;;;;;;;0.1;78.9;99560;;;;
2023/01/28 18:29:01;;;;;;;30.2;16.8;;;;;;;-0.1;79.8;99570;;;;
2023/01/28 18:39:01;;;;;;;36.5;20;;;;;;;-0.1;80.2;99570;;;;
2023/01/28 18:49:01;;;;;;;36.5;20;;;;;;;-0.1;80.7;99570;;;;
2023/01/28 19:00:01;;;;;;;39.3;26.7;;;;;;;-0.1;81.1;99570;;;;
2023/01/28 19:11:01;;;;;;;39.3;26.7;;;;;;;-0.1;81.3;99580;;;;
2023/01/28 19:21:03;;;;;;;39.3;26.7;;;;;;;-0.1;81.5;99590;;;;
2023/01/28 19:31:01;;;;;;;45.7;23.2;;;;;;;-0.1;81.6;99590;;;;
2023/01/28 19:41:01;;;;;;;45.7;23.2;;;;;;;0;81.8;99590;;;;
2023/01/28 19:51:01;;;;;;;45.7;23.2;;;;;;;0;81.8;99600;;;;
2023/01/28 20:02:01;;;;;;;43.2;23.8;;;;;;;0.1;81.8;99600;;;;
2023/01/28 20:13:01;;;;;;;43.2;23.8;;;;;;;0;82;99610;;;;
2023/01/28 20:24:01;;;;;;;43.2;23.8;;;;;;;0.2;81.8;99610;;;;
2023/01/28 20:35:01;;;;;;;34.8;17.8;;;;;;;0.1;81.9;99610;;;;
2023/01/28 20:45:01;;;;;;;34.8;17.8;;;;;;;0.1;82.1;99610;;;;
2023/01/28 20:56:01;;;;;;;34.8;17.8;;;;;;;0.2;81.8;99620;;;;
2023/01/28 21:07:01;;;;;;;34.7;20.2;;;;;;;0.1;82.3;99620;;;;
2023/01/28 21:17:01;;;;;;;34.7;20.2;;;;;;;0.2;82.1;99630;;;;
2023/01/28 21:27:01;;;;;;;34.7;20.2;;;;;;;0.3;81.7;99630;;;;
2023/01/28 21:37:01;;;;;;;36.1;20.1;;;;;;;0.4;81.4;99630;;;;
2023/01/28 21:47:01;;;;;;;36.1;20.1;;;;;;;0.3;81.5;99640;;;;
2023/01/28 21:59:26;;;;;;;36.1;20.1;;;;;;;0.3;81.5;99650;;;;
2023/01/28 22:09:03;;;;;;;32;19.2;;;;;;;0.3;81.5;99650;;;;
2023/01/28 22:19:01;;;;;;;32;19.2;;;;;;;0.3;81.7;99630;;;;
2023/01/28 22:30:01;;;;;;;41.1;21.1;;;;;;;0.4;81.6;99640;;;;
2023/01/28 22:41:03;;;;;;;41.1;21.1;;;;;;;0.4;81.8;99640;;;;
2023/01/28 22:51:01;;;;;;;41.1;21.1;;;;;;;0.3;81.9;99640;;;;
2023/01/28 23:01:01;;;;;;;27.8;15.9;;;;;;;0.3;82.2;99630;;;;
2023/01/28 23:11:01;;;;;;;27.8;15.9;;;;;;;0.2;82.8;99640;;;;
2023/01/28 23:33:01;;;;;;;28.8;15.2;;;;;;;0.2;83.4;99640;;;;
2023/01/28 23:43:03;;;;;;;28.8;15.2;;;;;;;0.1;83.6;99620;;;;
2023/01/28 23:54:01;;;;;;;28.8;15.2;;;;;;;0.2;83.7;99620;;;;
